Time,TemperatureF,DewpointF,PressureIn,WindDirection,WindDirectionDegrees,WindSpeedMPH,WindSpeedGustMPH,Humidity,HourlyPrecipIn,Conditions,Clouds,dailyrainin,SoftwareType,DateUTC
2013-08-31 11:02:00,89.4,74.2,29.96,SSE,158,1.0,2.0,61,0.00,,,0.00,Wunderground v.1.15,2013-08-31 15:02:00,
2013-08-31 11:03:00,89.4,74.2,29.96,South,191,1.0,2.0,61,0.00,,,0.00,Wunderground v.1.15,2013-08-31 15:03:00,
2013-08-31 11:04:00,89.5,74.3,29.96,SSE,147,1.0,3.0,61,0.00,,,0.00,Wunderground v.1.15,2013-08-31 15:04:00,
2013-08-31 11:05:00,89.5,74.3,29.96,SSW,193,1.0,3.0,61,0.00,,,0.00,Wunderground v.1.15,2013-08-31 15:05:00,
2013-08-31 11:08:00,89.6,74.9,29.96,SSW,192,1.0,3.0,62,0.00,,,0.00,Wunderground v.1.15,2013-08-31 15:08:00,
2013-08-31 11:10:00,89.7,74.0,29.96,SSW,205,1.0,1.0,60,0.00,,,0.00,Wunderground v.1.15,2013-08-31 15:10:00,
2013-08-31 11:11:00,89.8,74.6,29.96,SSE,162,1.0,1.0,61,0.00,,,0.00,Wunderground v.1.15,2013-08-31 15:11:00,
2013-08-31 11:13:00,89.9,74.2,29.96,NW,319,0.0,1.0,60,0.00,,,0.00,Wunderground v.1.15,2013-08-31 15:13:00,
2013-08-31 11:15:00,89.7,74.5,29.96,NW,325,1.0,1.0,61,0.00,,,0.00,Wunderground v.1.15,2013-08-31 15:15:00,
2013-08-31 11:16:00,89.4,74.7,29.96,NW,325,1.0,1.0,62,0.00,,,0.00,Wunderground v.1.15,2013-08-31 15:16:00,
2013-08-31 11:17:00,89.3,75.0,29.96,NW,306,1.0,1.0,63,0.00,,,0.00,Wunderground v.1.15,2013-08-31 15:17:00,
2013-08-31 11:18:00,89.2,74.5,29.96,NW,316,0.0,1.0,62,0.00,,,0.00,Wunderground v.1.15,2013-08-31 15:18:00,
2013-08-31 11:24:00,89.5,75.2,29.96,WNW,303,1.0,4.0,63,0.00,,,0.00,Wunderground v.1.15,2013-08-31 15:24:00,
2013-08-31 11:25:00,89.4,75.6,29.96,WNW,297,1.0,4.0,64,0.00,,,0.00,Wunderground v.1.15,2013-08-31 15:25:00,
2013-08-31 11:27:00,89.2,75.9,29.97,SSW,213,1.0,4.0,65,0.00,,,0.00,Wunderground v.1.15,2013-08-31 15:27:00,
2013-08-31 11:29:00,89.0,74.8,29.96,SSE,165,1.0,2.0,63,0.00,,,0.00,Wunderground v.1.15,2013-08-31 15:29:00,
2013-08-31 11:31:00,89.3,74.1,29.96,SSE,160,1.0,6.0,61,0.00,,,0.00,Wunderground v.1.15,2013-08-31 15:31:00,
2013-08-31 11:33:00,89.5,74.3,29.96,South,186,1.0,6.0,61,0.00,,,0.00,Wunderground v.1.15,2013-08-31 15:33:00,
2013-08-31 11:34:00,89.7,74.5,29.96,SW,231,1.0,6.0,61,0.00,,,0.00,Wunderground v.1.15,2013-08-31 15:34:00,
2013-08-31 11:35:00,89.8,75.0,29.96,NW,305,1.0,6.0,62,0.00,,,0.00,Wunderground v.1.15,2013-08-31 15:35:00,
2013-08-31 11:37:00,90.0,74.7,29.96,SSW,192,1.0,6.0,61,0.00,,,0.00,Wunderground v.1.15,2013-08-31 15:37:00,
2013-08-31 11:38:00,90.2,75.4,29.96,SW,221,1.0,6.0,62,0.00,,,0.00,Wunderground v.1.15,2013-08-31 15:38:00,
2013-08-31 11:40:00,90.5,74.7,29.96,SSE,165,1.0,6.0,60,0.00,,,0.00,Wunderground v.1.15,2013-08-31 15:40:00,
2013-08-31 11:41:00,90.6,74.3,29.96,SSE,157,1.0,6.0,59,0.00,,,0.00,Wunderground v.1.15,2013-08-31 15:41:00,
2013-08-31 11:42:00,90.6,74.3,29.96,East,101,1.0,6.0,59,0.00,,,0.00,Wunderground v.1.15,2013-08-31 15:42:00,
2013-08-31 11:46:00,90.6,74.3,29.96,WSW,240,1.0,6.0,59,0.00,,,0.00,Wunderground v.1.15,2013-08-31 15:46:00,
2013-08-31 11:48:00,91.0,75.2,29.96,SSE,162,1.0,6.0,60,0.00,,,0.00,Wunderground v.1.15,2013-08-31 15:48:00,
2013-08-31 11:49:00,91.3,73.9,29.96,SSE,153,1.0,6.0,57,0.00,,,0.00,Wunderground v.1.15,2013-08-31 15:49:00,
2013-08-31 11:51:00,91.7,73.8,29.96,South,173,1.0,6.0,56,0.00,,,0.00,Wunderground v.1.15,2013-08-31 15:51:00,
2013-08-31 11:52:00,91.8,73.9,29.96,ENE,66,1.0,6.0,56,0.00,,,0.00,Wunderground v.1.15,2013-08-31 15:52:00,
2013-08-31 11:55:00,92.3,75.4,29.96,NW,313,1.0,6.0,58,0.00,,,0.00,Wunderground v.1.15,2013-08-31 15:55:00,
2013-08-31 11:57:00,92.0,75.1,29.96,South,176,1.0,6.0,58,0.00,,,0.00,Wunderground v.1.15,2013-08-31 15:57:00,
2013-08-31 11:58:00,92.0,74.6,29.96,WSW,252,1.0,6.0,57,0.00,,,0.00,Wunderground v.1.15,2013-08-31 15:58:00,
2013-08-31 12:02:00,92.1,74.1,29.96,SW,223,2.0,4.0,56,0.00,,,0.00,Wunderground v.1.15,2013-08-31 16:02:00,
2013-08-31 12:04:00,91.8,73.3,29.96,West,259,2.0,4.0,55,0.00,,,0.00,Wunderground v.1.15,2013-08-31 16:04:00,
2013-08-31 12:05:00,91.7,74.8,29.96,WNW,294,2.0,4.0,58,0.00,,,0.00,Wunderground v.1.15,2013-08-31 16:05:00,
2013-08-31 12:08:00,90.9,74.1,29.96,NW,316,2.0,4.0,58,0.00,,,0.00,Wunderground v.1.15,2013-08-31 16:08:00,
2013-08-31 12:10:00,90.5,74.2,29.96,NW,316,1.0,3.0,59,0.00,,,0.00,Wunderground v.1.15,2013-08-31 16:10:00,
2013-08-31 12:11:00,90.3,73.5,29.96,NW,323,2.0,3.0,58,0.00,,,0.00,Wunderground v.1.15,2013-08-31 16:11:00,
2013-08-31 12:13:00,90.2,75.9,29.95,WNW,298,1.0,3.0,63,0.00,,,0.00,Wunderground v.1.15,2013-08-31 16:13:00,
2013-08-31 12:14:00,90.1,74.3,29.95,NW,313,1.0,3.0,60,0.00,,,0.00,Wunderground v.1.15,2013-08-31 16:14:00,
2013-08-31 12:15:00,90.1,75.3,29.95,NW,314,2.0,3.0,62,0.00,,,0.00,Wunderground v.1.15,2013-08-31 16:15:00,
2013-08-31 12:17:00,90.1,76.3,29.95,NW,309,2.0,4.0,64,0.00,,,0.00,Wunderground v.1.15,2013-08-31 16:17:00,
2013-08-31 12:19:00,89.9,74.6,29.95,NW,324,2.0,4.0,61,0.00,,,0.00,Wunderground v.1.15,2013-08-31 16:19:00,
2013-08-31 12:21:00,89.7,73.5,29.95,North,8,2.0,2.0,59,0.00,,,0.00,Wunderground v.1.15,2013-08-31 16:21:00,
2013-08-31 12:22:00,89.7,73.0,29.95,WNW,299,2.0,3.0,58,0.00,,,0.00,Wunderground v.1.15,2013-08-31 16:22:00,
2013-08-31 12:25:00,89.8,74.1,29.95,South,191,2.0,3.0,60,0.00,,,0.00,Wunderground v.1.15,2013-08-31 16:25:00,
2013-08-31 12:26:00,89.9,73.7,29.95,SE,131,1.0,3.0,59,0.00,,,0.00,Wunderground v.1.15,2013-08-31 16:26:00,
2013-08-31 12:27:00,90.0,73.2,29.95,SE,145,1.0,3.0,58,0.00,,,0.00,Wunderground v.1.15,2013-08-31 16:27:00,
2013-08-31 12:29:00,90.5,73.2,29.95,ENE,63,1.0,3.0,57,0.00,,,0.00,Wunderground v.1.15,2013-08-31 16:29:00,
2013-08-31 12:30:00,90.9,74.1,29.95,NE,48,1.0,1.0,58,0.00,,,0.00,Wunderground v.1.15,2013-08-31 16:30:00,
2013-08-31 12:33:00,91.9,75.5,29.95,NNW,328,0.0,5.0,59,0.00,,,0.00,Wunderground v.1.15,2013-08-31 16:33:00,
2013-08-31 12:34:00,92.1,74.1,29.95,WNW,301,0.0,5.0,56,0.00,,,0.00,Wunderground v.1.15,2013-08-31 16:34:00,
2013-08-31 12:35:00,92.2,75.3,29.95,NE,49,1.0,5.0,58,0.00,,,0.00,Wunderground v.1.15,2013-08-31 16:35:00,
2013-08-31 12:41:00,91.8,73.3,29.95,South,181,1.0,5.0,55,0.00,,,0.00,Wunderground v.1.15,2013-08-31 16:41:00,
2013-08-31 12:42:00,91.9,73.4,29.95,SSE,162,1.0,5.0,55,0.00,,,0.00,Wunderground v.1.15,2013-08-31 16:42:00,
2013-08-31 12:44:00,92.2,73.2,29.95,South,179,1.0,5.0,54,0.00,,,0.00,Wunderground v.1.15,2013-08-31 16:44:00,
2013-08-31 12:45:00,92.2,73.2,29.95,South,170,2.0,5.0,54,0.00,,,0.00,Wunderground v.1.15,2013-08-31 16:45:00,
2013-08-31 12:50:00,92.2,73.2,29.95,ESE,112,2.0,5.0,54,0.00,,,0.00,Wunderground v.1.15,2013-08-31 16:50:00,
2013-08-31 12:51:00,92.2,72.6,29.95,ENE,68,2.0,5.0,53,0.00,,,0.00,Wunderground v.1.15,2013-08-31 16:51:00,
2013-08-31 12:53:00,92.0,72.4,29.95,SE,125,2.0,5.0,53,0.00,,,0.00,Wunderground v.1.15,2013-08-31 16:53:00,
2013-08-31 12:54:00,91.9,72.3,29.95,ESE,118,2.0,5.0,53,0.00,,,0.00,Wunderground v.1.15,2013-08-31 16:54:00,
2013-08-31 12:55:00,91.7,72.1,29.94,ESE,118,2.0,5.0,53,0.00,,,0.00,Wunderground v.1.15,2013-08-31 16:55:00,
2013-08-31 12:56:00,91.6,72.0,29.94,ESE,106,1.0,5.0,53,0.00,,,0.00,Wunderground v.1.15,2013-08-31 16:56:00,
2013-08-31 12:59:00,91.3,75.5,29.95,ESE,112,2.0,5.0,60,0.00,,,0.00,Wunderground v.1.15,2013-08-31 16:59:00,
2013-08-31 13:01:00,90.9,75.6,29.95,SE,136,2.0,2.0,61,0.00,,,0.00,Wunderground v.1.15,2013-08-31 17:01:00,
2013-08-31 13:05:00,90.2,75.9,29.95,SE,133,2.0,4.0,63,0.00,,,0.00,Wunderground v.1.15,2013-08-31 17:05:00,
2013-08-31 13:06:00,90.1,76.3,29.95,East,80,2.0,6.0,64,0.00,,,0.00,Wunderground v.1.15,2013-08-31 17:06:00,
2013-08-31 13:07:00,89.9,76.1,29.95,ENE,70,3.0,6.0,64,0.00,,,0.00,Wunderground v.1.15,2013-08-31 17:07:00,
2013-08-31 13:08:00,89.7,76.4,29.95,ENE,68,3.0,6.0,65,0.00,,,0.00,Wunderground v.1.15,2013-08-31 17:08:00,
2013-08-31 13:09:00,89.5,76.2,29.95,ESE,121,3.0,6.0,65,0.00,,,0.00,Wunderground v.1.15,2013-08-31 17:09:00,
2013-08-31 13:10:00,89.4,76.5,29.95,SSE,159,3.0,3.0,66,0.00,,,0.00,Wunderground v.1.15,2013-08-31 17:10:00,
2013-08-31 13:11:00,89.3,76.4,29.95,SSE,161,3.0,4.0,66,0.00,,,0.00,Wunderground v.1.15,2013-08-31 17:11:00,
2013-08-31 13:14:00,88.7,75.9,29.95,East,79,3.0,5.0,66,0.00,,,0.00,Wunderground v.1.15,2013-08-31 17:14:00,
2013-08-31 13:16:00,88.1,75.8,29.95,ESE,105,3.0,5.0,67,0.00,,,0.00,Wunderground v.1.15,2013-08-31 17:16:00,
2013-08-31 13:17:00,87.9,76.0,29.94,SE,124,3.0,5.0,68,0.00,,,0.00,Wunderground v.1.15,2013-08-31 17:17:00,
2013-08-31 13:18:00,87.8,75.9,29.94,SE,135,3.0,5.0,68,0.00,,,0.00,Wunderground v.1.15,2013-08-31 17:18:00,
2013-08-31 13:20:00,87.4,76.0,29.94,South,183,3.0,3.0,69,0.00,,,0.00,Wunderground v.1.15,2013-08-31 17:20:00,
2013-08-31 13:23:00,86.9,75.5,29.94,South,173,3.0,6.0,69,0.00,,,0.00,Wunderground v.1.15,2013-08-31 17:23:00,
2013-08-31 14:17:00,80.0,73.3,29.93,East,93,2.0,2.0,80,0.00,,,0.00,Wunderground v.1.15,2013-08-31 18:17:00,
2013-08-31 14:19:00,80.2,73.8,29.94,ESE,121,1.0,2.0,81,0.00,,,0.00,Wunderground v.1.15,2013-08-31 18:19:00,
2013-08-31 14:20:00,80.3,73.6,29.94,SE,133,1.0,2.0,80,0.00,,,0.00,Wunderground v.1.15,2013-08-31 18:20:00,
2013-08-31 14:25:00,81.2,74.8,29.93,East,84,1.0,2.0,81,0.00,,,0.00,Wunderground v.1.15,2013-08-31 18:25:00,
2013-08-31 14:27:00,81.4,75.0,29.93,ESE,105,1.0,1.0,81,0.00,,,0.00,Wunderground v.1.15,2013-08-31 18:27:00,
2013-08-31 14:30:00,81.8,75.4,29.93,ENE,69,1.0,1.0,81,0.00,,,0.00,Wunderground v.1.15,2013-08-31 18:30:00,
2013-08-31 14:31:00,81.9,75.5,29.93,ENE,75,1.0,1.0,81,0.00,,,0.00,Wunderground v.1.15,2013-08-31 18:31:00,
2013-08-31 14:32:00,82.0,75.6,29.92,ENE,75,1.0,1.0,81,0.00,,,0.00,Wunderground v.1.15,2013-08-31 18:32:00,
2013-08-31 14:33:00,82.2,75.8,29.92,ENE,77,1.0,1.0,81,0.00,,,0.00,Wunderground v.1.15,2013-08-31 18:33:00,
2013-08-31 14:35:00,82.6,75.8,29.92,ESE,119,1.0,1.0,80,0.00,,,0.00,Wunderground v.1.15,2013-08-31 18:35:00,
2013-08-31 14:36:00,82.7,75.9,29.92,East,88,1.0,1.0,80,0.00,,,0.00,Wunderground v.1.15,2013-08-31 18:36:00,
2013-08-31 14:37:00,82.7,75.9,29.92,East,89,1.0,1.0,80,0.00,,,0.00,Wunderground v.1.15,2013-08-31 18:37:00,
2013-08-31 14:38:00,82.8,76.4,29.92,ENE,74,1.0,1.0,81,0.00,,,0.00,Wunderground v.1.15,2013-08-31 18:38:00,
2013-08-31 14:42:00,83.2,76.4,29.93,East,90,1.0,2.0,80,0.00,,,0.00,Wunderground v.1.15,2013-08-31 18:42:00,
2013-08-31 14:44:00,83.3,76.9,29.92,ENE,74,1.0,2.0,81,0.00,,,0.00,Wunderground v.1.15,2013-08-31 18:44:00,
2013-08-31 14:46:00,83.6,76.8,29.92,East,101,1.0,2.0,80,0.00,,,0.00,Wunderground v.1.15,2013-08-31 18:46:00,
2013-08-31 14:48:00,83.6,76.8,29.93,SE,129,1.0,2.0,80,0.00,,,0.00,Wunderground v.1.15,2013-08-31 18:48:00,
2013-08-31 14:49:00,83.6,76.8,29.93,East,96,1.0,2.0,80,0.00,,,0.00,Wunderground v.1.15,2013-08-31 18:49:00,
2013-08-31 14:50:00,83.6,77.1,29.92,East,91,1.0,2.0,81,0.00,,,0.00,Wunderground v.1.15,2013-08-31 18:50:00,
2013-08-31 14:54:00,83.8,77.3,29.92,ESE,113,1.0,3.0,81,0.00,,,0.00,Wunderground v.1.15,2013-08-31 18:54:00,
2013-08-31 14:56:00,83.8,77.3,29.92,East,101,1.0,3.0,81,0.00,,,0.00,Wunderground v.1.15,2013-08-31 18:56:00,
2013-08-31 14:57:00,83.8,77.3,29.92,ESE,113,1.0,1.0,81,0.00,,,0.00,Wunderground v.1.15,2013-08-31 18:57:00,
2013-08-31 14:59:00,84.0,77.5,29.92,East,89,1.0,3.0,81,0.00,,,0.00,Wunderground v.1.15,2013-08-31 18:59:00,
2013-08-31 15:00:00,84.0,77.5,29.93,ESE,119,1.0,2.0,81,0.00,,,0.00,Wunderground v.1.15,2013-08-31 19:00:00,
2013-08-31 15:04:00,84.0,77.5,29.93,East,89,2.0,3.0,81,0.00,,,0.00,Wunderground v.1.15,2013-08-31 19:04:00,
2013-08-31 15:05:00,84.0,77.5,29.93,SSE,155,2.0,3.0,81,0.00,,,0.00,Wunderground v.1.15,2013-08-31 19:05:00,
2013-08-31 15:06:00,84.0,77.5,29.93,NE,56,2.0,3.0,81,0.00,,,0.00,Wunderground v.1.15,2013-08-31 19:06:00,
2013-08-31 15:07:00,84.1,77.6,29.93,SE,138,2.0,3.0,81,0.00,,,0.00,Wunderground v.1.15,2013-08-31 19:07:00,
2013-08-31 15:12:00,84.3,78.2,29.92,ESE,113,2.0,4.0,82,0.00,,,0.00,Wunderground v.1.15,2013-08-31 19:12:00,
2013-08-31 15:13:00,84.4,78.3,29.92,ESE,122,2.0,4.0,82,0.00,,,0.00,Wunderground v.1.15,2013-08-31 19:13:00,
2013-08-31 15:15:00,84.5,78.0,29.92,East,86,2.0,4.0,81,0.00,,,0.00,Wunderground v.1.15,2013-08-31 19:15:00,
2013-08-31 15:16:00,84.5,78.0,29.92,SE,127,2.0,4.0,81,0.00,,,0.00,Wunderground v.1.15,2013-08-31 19:16:00,
2013-08-31 15:17:00,84.6,78.1,29.92,SE,124,2.0,4.0,81,0.00,,,0.00,Wunderground v.1.15,2013-08-31 19:17:00,
2013-08-31 15:19:00,84.6,78.1,29.92,SE,138,2.0,4.0,81,0.00,,,0.00,Wunderground v.1.15,2013-08-31 19:19:00,
2013-08-31 15:20:00,84.6,78.1,29.93,SE,139,2.0,5.0,81,0.00,,,0.00,Wunderground v.1.15,2013-08-31 19:20:00,
2013-08-31 15:21:00,84.5,78.0,29.93,SSE,153,2.0,5.0,81,0.00,,,0.00,Wunderground v.1.15,2013-08-31 19:21:00,
2013-08-31 15:26:00,84.3,78.6,29.93,SE,138,3.0,6.0,83,0.00,,,0.00,Wunderground v.1.15,2013-08-31 19:26:00,
2013-08-31 15:27:00,84.3,78.2,29.94,South,185,3.0,6.0,82,0.00,,,0.00,Wunderground v.1.15,2013-08-31 19:27:00,
2013-08-31 15:29:00,84.2,78.5,29.94,SSE,152,3.0,6.0,83,0.00,,,0.00,Wunderground v.1.15,2013-08-31 19:29:00,
2013-08-31 15:32:00,84.1,78.4,29.94,ESE,112,2.0,4.0,83,0.00,,,0.00,Wunderground v.1.15,2013-08-31 19:32:00,
2013-08-31 15:34:00,84.0,78.3,29.94,SE,136,2.0,4.0,83,0.00,,,0.00,Wunderground v.1.15,2013-08-31 19:34:00,
2013-08-31 15:36:00,83.9,78.2,29.93,ESE,114,2.0,5.0,83,0.00,,,0.00,Wunderground v.1.15,2013-08-31 19:36:00,
2013-08-31 15:37:00,83.8,78.1,29.93,ESE,110,2.0,5.0,83,0.00,,,0.00,Wunderground v.1.15,2013-08-31 19:37:00,
2013-08-31 15:38:00,83.8,78.4,29.93,South,169,2.0,5.0,84,0.00,,,0.00,Wunderground v.1.15,2013-08-31 19:38:00,
2013-08-31 15:39:00,83.8,78.4,29.93,SE,130,2.0,5.0,84,0.00,,,0.00,Wunderground v.1.15,2013-08-31 19:39:00,
2013-08-31 15:42:00,83.7,78.7,29.94,SSE,151,2.0,4.0,85,0.00,,,0.00,Wunderground v.1.15,2013-08-31 19:42:00,
2013-08-31 15:43:00,83.7,78.7,29.93,SE,134,2.0,4.0,85,0.00,,,0.00,Wunderground v.1.15,2013-08-31 19:43:00,
2013-08-31 15:45:00,83.6,78.6,29.93,SSE,159,1.0,4.0,85,0.00,,,0.00,Wunderground v.1.15,2013-08-31 19:45:00,
2013-08-31 15:46:00,83.6,78.6,29.93,ESE,103,1.0,4.0,85,0.00,,,0.00,Wunderground v.1.15,2013-08-31 19:46:00,
2013-08-31 15:49:00,83.4,78.8,29.92,SSE,157,1.0,4.0,86,0.00,,,0.00,Wunderground v.1.15,2013-08-31 19:49:00,
2013-08-31 15:50:00,83.3,78.7,29.93,SSE,164,1.0,4.0,86,0.00,,,0.00,Wunderground v.1.15,2013-08-31 19:50:00,
2013-08-31 15:51:00,83.2,78.6,29.93,ESE,115,1.0,4.0,86,0.00,,,0.00,Wunderground v.1.15,2013-08-31 19:51:00,
2013-08-31 15:54:00,82.8,76.7,29.93,SE,134,2.0,4.0,82,0.00,,,0.00,Wunderground v.1.15,2013-08-31 19:54:00,
2013-08-31 15:57:00,82.1,75.7,29.94,SW,233,2.0,7.0,81,0.00,,,0.00,Wunderground v.1.15,2013-08-31 19:57:00,
2013-08-31 15:58:00,81.9,75.9,29.94,South,183,2.0,7.0,82,0.00,,,0.00,Wunderground v.1.15,2013-08-31 19:58:00,
2013-08-31 15:59:00,81.6,74.8,29.94,SSW,198,2.0,7.0,80,0.00,,,0.00,Wunderground v.1.15,2013-08-31 19:59:00,
2013-08-31 16:00:00,81.2,74.4,29.93,SSW,193,2.0,2.0,80,0.00,,,0.00,Wunderground v.1.15,2013-08-31 20:00:00,
2013-08-31 16:03:00,80.4,74.0,29.93,SW,228,2.0,4.0,81,0.00,,,0.00,Wunderground v.1.15,2013-08-31 20:03:00,
2013-08-31 16:04:00,80.1,73.7,29.93,South,179,2.0,4.0,81,0.00,,,0.00,Wunderground v.1.15,2013-08-31 20:04:00,
2013-08-31 16:08:00,79.2,73.2,29.93,SE,134,2.0,5.0,82,0.00,,,0.00,Wunderground v.1.15,2013-08-31 20:08:00,
2013-08-31 16:10:00,78.9,73.3,29.92,SSE,150,2.0,2.0,83,0.00,,,0.00,Wunderground v.1.15,2013-08-31 20:10:00,
2013-08-31 16:11:00,78.8,73.2,29.92,SSW,209,2.0,2.0,83,0.00,,,0.00,Wunderground v.1.15,2013-08-31 20:11:00,
2013-08-31 16:15:00,78.4,73.2,29.92,ESE,111,2.0,3.0,84,0.00,,,0.01,Wunderground v.1.15,2013-08-31 20:15:00,
2013-08-31 16:16:00,78.3,73.4,29.92,SE,139,2.0,3.0,85,0.00,,,0.01,Wunderground v.1.15,2013-08-31 20:16:00,
2013-08-31 16:17:00,78.1,73.6,29.92,SE,135,2.0,3.0,86,0.12,,,0.02,Wunderground v.1.15,2013-08-31 20:17:00,
2013-08-31 16:20:00,77.7,73.2,29.92,SE,137,2.0,2.0,86,0.12,,,0.02,Wunderground v.1.15,2013-08-31 20:20:00,
2013-08-31 16:22:00,77.5,73.3,29.92,ESE,116,2.0,4.0,87,0.10,,,0.02,Wunderground v.1.15,2013-08-31 20:22:00,
2013-08-31 16:23:00,77.4,73.2,29.92,ESE,115,2.0,4.0,87,0.09,,,0.02,Wunderground v.1.15,2013-08-31 20:23:00,
2013-08-31 16:24:00,77.3,73.5,29.92,SSE,162,2.0,4.0,88,0.08,,,0.02,Wunderground v.1.15,2013-08-31 20:24:00,
2013-08-31 16:25:00,77.2,73.4,29.92,SE,131,2.0,4.0,88,0.07,,,0.02,Wunderground v.1.15,2013-08-31 20:25:00,
2013-08-31 16:28:00,77.1,73.6,29.91,SE,143,2.0,4.0,89,0.05,,,0.02,Wunderground v.1.15,2013-08-31 20:28:00,
2013-08-31 16:30:00,77.0,73.5,29.91,SE,140,2.0,2.0,89,0.04,,,0.02,Wunderground v.1.15,2013-08-31 20:30:00,
2013-08-31 16:31:00,77.0,73.5,29.91,ESE,115,1.0,9.0,89,0.04,,,0.02,Wunderground v.1.15,2013-08-31 20:31:00,
2013-08-31 16:34:00,76.8,73.3,29.91,SE,130,1.0,9.0,89,0.00,,,0.02,Wunderground v.1.15,2013-08-31 20:34:00,
2013-08-31 16:36:00,76.8,73.6,29.91,SE,128,1.0,9.0,90,0.00,,,0.03,Wunderground v.1.15,2013-08-31 20:36:00,
2013-08-31 16:38:00,76.8,74.0,29.91,ENE,78,1.0,9.0,91,0.00,,,0.03,Wunderground v.1.15,2013-08-31 20:38:00,
2013-08-31 16:41:00,76.8,74.0,29.91,ESE,110,1.0,9.0,91,0.10,,,0.04,Wunderground v.1.15,2013-08-31 20:41:00,
2013-08-31 16:43:00,76.7,73.9,29.91,SE,146,1.0,9.0,91,0.10,,,0.04,Wunderground v.1.15,2013-08-31 20:43:00,
2013-08-31 16:44:00,76.7,73.9,29.91,SE,145,1.0,9.0,91,0.10,,,0.04,Wunderground v.1.15,2013-08-31 20:44:00,
2013-08-31 16:46:00,76.7,73.9,29.91,ESE,122,0.0,9.0,91,0.10,,,0.04,Wunderground v.1.15,2013-08-31 20:46:00,
2013-08-31 16:48:00,76.7,73.9,29.91,SE,124,0.0,9.0,91,0.08,,,0.04,Wunderground v.1.15,2013-08-31 20:48:00,
2013-08-31 16:50:00,76.7,74.2,29.91,SSE,157,0.0,9.0,92,0.07,,,0.05,Wunderground v.1.15,2013-08-31 20:50:00,
2013-08-31 16:52:00,76.8,74.3,29.91,SE,146,0.0,9.0,92,0.07,,,0.05,Wunderground v.1.15,2013-08-31 20:52:00,
2013-08-31 16:54:00,76.8,74.3,29.92,South,170,0.0,9.0,92,0.12,,,0.06,Wunderground v.1.15,2013-08-31 20:54:00,
2013-08-31 16:56:00,76.8,74.3,29.92,SW,231,0.0,9.0,92,0.12,,,0.06,Wunderground v.1.15,2013-08-31 20:56:00,
2013-08-31 16:57:00,76.8,74.3,29.92,SSW,202,0.0,9.0,92,0.12,,,0.06,Wunderground v.1.15,2013-08-31 20:57:00,
2013-08-31 16:58:00,76.9,74.4,29.92,SE,139,0.0,9.0,92,0.12,,,0.06,Wunderground v.1.15,2013-08-31 20:58:00,
2013-08-31 16:59:00,76.9,74.4,29.92,SE,146,0.0,9.0,92,0.14,,,0.07,Wunderground v.1.15,2013-08-31 20:59:00,
2013-08-31 17:02:00,76.8,74.3,29.92,South,183,1.0,3.0,92,0.26,,,0.08,Wunderground v.1.15,2013-08-31 21:02:00,
2013-08-31 17:04:00,76.7,74.2,29.92,SW,236,1.0,3.0,92,0.33,,,0.09,Wunderground v.1.15,2013-08-31 21:04:00,
2013-08-31 17:05:00,76.7,74.2,29.92,SW,233,1.0,3.0,92,0.24,,,0.10,Wunderground v.1.15,2013-08-31 21:05:00,
2013-08-31 17:07:00,76.5,74.0,29.92,SW,214,1.0,3.0,92,0.24,,,0.10,Wunderground v.1.15,2013-08-31 21:07:00,
2013-08-31 17:08:00,76.5,74.0,29.92,SSE,167,1.0,3.0,92,0.24,,,0.11,Wunderground v.1.15,2013-08-31 21:08:00,
2013-08-31 17:11:00,76.4,73.9,29.92,SSW,203,0.0,1.0,92,0.15,,,0.11,Wunderground v.1.15,2013-08-31 21:11:00,
2013-08-31 17:12:00,76.3,73.8,29.92,SSW,209,0.0,1.0,92,0.12,,,0.11,Wunderground v.1.15,2013-08-31 21:12:00,
2013-08-31 17:14:00,76.3,73.8,29.92,SSW,209,0.0,1.0,92,0.09,,,0.12,Wunderground v.1.15,2013-08-31 21:14:00,
2013-08-31 17:19:00,76.2,73.7,29.93,SSW,211,0.0,1.0,92,0.09,,,0.12,Wunderground v.1.15,2013-08-31 21:19:00,
2013-08-31 17:20:00,76.2,73.7,29.93,SSW,211,0.0,0.0,92,0.10,,,0.13,Wunderground v.1.15,2013-08-31 21:20:00,
2013-08-31 17:22:00,76.2,73.7,29.94,WNW,298,0.0,0.0,92,0.10,,,0.13,Wunderground v.1.15,2013-08-31 21:22:00,
2013-08-31 17:25:00,76.0,73.5,29.94,WNW,286,0.0,0.0,92,0.11,,,0.14,Wunderground v.1.15,2013-08-31 21:25:00,
2013-08-31 17:28:00,75.8,73.3,29.94,SW,230,0.0,0.0,92,0.11,,,0.14,Wunderground v.1.15,2013-08-31 21:28:00,
2013-08-31 17:29:00,75.8,73.3,29.94,SW,230,0.0,0.0,92,0.11,,,0.14,Wunderground v.1.15,2013-08-31 21:29:00,
2013-08-31 17:31:00,75.8,73.6,29.94,WNW,295,0.0,7.0,93,0.10,,,0.14,Wunderground v.1.15,2013-08-31 21:31:00,
2013-08-31 17:34:00,75.8,73.3,29.94,SSW,211,0.0,7.0,92,0.10,,,0.15,Wunderground v.1.15,2013-08-31 21:34:00,
2013-08-31 17:38:00,75.7,73.5,29.94,SSW,212,0.0,7.0,93,0.14,,,0.16,Wunderground v.1.15,2013-08-31 21:38:00,
2013-08-31 17:39:00,75.7,73.5,29.94,WNW,291,0.0,7.0,93,0.21,,,0.17,Wunderground v.1.15,2013-08-31 21:39:00,
2013-08-31 17:40:00,75.7,73.5,29.94,WNW,291,0.0,7.0,93,0.30,,,0.17,Wunderground v.1.15,2013-08-31 21:40:00,
2013-08-31 17:41:00,75.6,73.4,29.94,WNW,299,0.0,7.0,93,0.30,,,0.18,Wunderground v.1.15,2013-08-31 21:41:00,
2013-08-31 17:45:00,75.3,72.8,29.94,NW,309,0.0,7.0,92,0.18,,,0.19,Wunderground v.1.15,2013-08-31 21:45:00,
2013-08-31 17:46:00,75.3,72.8,29.94,NW,309,0.0,7.0,92,0.18,,,0.19,Wunderground v.1.15,2013-08-31 21:46:00,
2013-08-31 17:49:00,75.2,72.7,29.93,NW,309,0.0,7.0,92,0.20,,,0.20,Wunderground v.1.15,2013-08-31 21:49:00,
2013-08-31 17:50:00,75.2,72.7,29.93,NW,309,0.0,7.0,92,0.16,,,0.20,Wunderground v.1.15,2013-08-31 21:50:00,
2013-08-31 17:54:00,75.1,72.6,29.93,NW,307,0.0,7.0,92,0.11,,,0.21,Wunderground v.1.15,2013-08-31 21:54:00,
2013-08-31 17:55:00,75.1,72.6,29.93,NW,307,0.0,7.0,92,0.11,,,0.21,Wunderground v.1.15,2013-08-31 21:55:00,
2013-08-31 17:56:00,75.1,72.6,29.93,WNW,299,0.0,7.0,92,0.11,,,0.21,Wunderground v.1.15,2013-08-31 21:56:00,
2013-08-31 17:58:00,75.0,72.5,29.93,SSE,147,0.0,7.0,92,0.09,,,0.21,Wunderground v.1.15,2013-08-31 21:58:00,
2013-08-31 18:02:00,75.1,72.9,29.93,ESE,116,0.0,0.0,93,0.07,,,0.22,Wunderground v.1.15,2013-08-31 22:02:00,
2013-08-31 18:03:00,75.1,72.9,29.93,ESE,116,0.0,0.0,93,0.07,,,0.22,Wunderground v.1.15,2013-08-31 22:03:00,
2013-08-31 18:04:00,75.1,72.9,29.93,ESE,116,0.0,0.0,93,0.07,,,0.22,Wunderground v.1.15,2013-08-31 22:04:00,
2013-08-31 18:05:00,75.1,72.6,29.93,ESE,116,0.0,0.0,92,0.07,,,0.22,Wunderground v.1.15,2013-08-31 22:05:00,
2013-08-31 18:06:00,75.1,72.9,29.92,ESE,116,0.0,0.0,93,0.07,,,0.22,Wunderground v.1.15,2013-08-31 22:06:00,
2013-08-31 18:07:00,75.0,72.5,29.92,ESE,116,0.0,0.0,92,0.07,,,0.22,Wunderground v.1.15,2013-08-31 22:07:00,
2013-08-31 18:09:00,75.1,72.9,29.92,ESE,116,0.0,0.0,93,0.07,,,0.22,Wunderground v.1.15,2013-08-31 22:09:00,
2013-08-31 18:10:00,75.1,72.9,29.92,ESE,116,0.0,0.0,93,0.07,,,0.23,Wunderground v.1.15,2013-08-31 22:10:00,
2013-08-31 18:15:00,75.0,72.5,29.92,ESE,116,0.0,0.0,92,0.07,,,0.23,Wunderground v.1.15,2013-08-31 22:15:00,
2013-08-31 18:16:00,75.0,72.5,29.92,ESE,116,0.0,0.0,92,0.07,,,0.23,Wunderground v.1.15,2013-08-31 22:16:00,
2013-08-31 18:17:00,75.0,72.5,29.92,ESE,116,0.0,0.0,92,0.07,,,0.23,Wunderground v.1.15,2013-08-31 22:17:00,
2013-08-31 18:18:00,75.0,72.8,29.92,SE,134,0.0,1.0,93,0.07,,,0.23,Wunderground v.1.15,2013-08-31 22:18:00,
2013-08-31 18:23:00,75.0,72.8,29.92,SE,131,0.0,0.0,93,0.04,,,0.23,Wunderground v.1.15,2013-08-31 22:23:00,
2013-08-31 18:24:00,75.1,72.9,29.92,SE,134,0.0,0.0,93,0.04,,,0.23,Wunderground v.1.15,2013-08-31 22:24:00,
2013-08-31 18:25:00,75.1,72.9,29.92,SE,134,0.0,0.0,93,0.04,,,0.23,Wunderground v.1.15,2013-08-31 22:25:00,
2013-08-31 18:26:00,75.1,72.9,29.92,SE,134,0.0,0.0,93,0.04,,,0.23,Wunderground v.1.15,2013-08-31 22:26:00,
2013-08-31 18:29:00,75.0,72.5,29.92,SE,134,0.0,0.0,92,0.00,,,0.23,Wunderground v.1.15,2013-08-31 22:29:00,
2013-08-31 18:30:00,75.0,72.8,29.91,SE,134,0.0,0.0,93,0.00,,,0.23,Wunderground v.1.15,2013-08-31 22:30:00,
2013-08-31 18:31:00,75.0,72.8,29.91,SE,134,0.0,2.0,93,0.00,,,0.23,Wunderground v.1.15,2013-08-31 22:31:00,
2013-08-31 18:32:00,75.0,72.8,29.91,SE,134,0.0,2.0,93,0.00,,,0.23,Wunderground v.1.15,2013-08-31 22:32:00,
2013-08-31 18:34:00,75.1,72.9,29.91,ESE,119,0.0,2.0,93,0.00,,,0.23,Wunderground v.1.15,2013-08-31 22:34:00,
2013-08-31 18:37:00,75.1,72.9,29.91,ENE,77,0.0,2.0,93,0.00,,,0.23,Wunderground v.1.15,2013-08-31 22:37:00,
2013-08-31 18:38:00,75.1,72.9,29.91,ENE,76,0.0,2.0,93,0.00,,,0.23,Wunderground v.1.15,2013-08-31 22:38:00,
2013-08-31 18:39:00,75.2,73.0,29.92,ENE,77,0.0,2.0,93,0.00,,,0.23,Wunderground v.1.15,2013-08-31 22:39:00,
2013-08-31 18:42:00,75.2,73.0,29.91,East,96,0.0,2.0,93,0.00,,,0.23,Wunderground v.1.15,2013-08-31 22:42:00,
2013-08-31 18:43:00,75.2,73.0,29.92,East,96,0.0,2.0,93,0.00,,,0.23,Wunderground v.1.15,2013-08-31 22:43:00,
2013-08-31 18:44:00,75.2,73.0,29.92,East,79,0.0,2.0,93,0.00,,,0.23,Wunderground v.1.15,2013-08-31 22:44:00,
2013-08-31 18:45:00,75.2,73.0,29.92,East,79,0.0,2.0,93,0.00,,,0.23,Wunderground v.1.15,2013-08-31 22:45:00,
2013-08-31 18:49:00,75.1,73.3,29.92,ENE,78,0.0,2.0,94,0.00,,,0.23,Wunderground v.1.15,2013-08-31 22:49:00,
2013-08-31 18:50:00,75.2,73.4,29.92,ENE,78,0.0,2.0,94,0.00,,,0.23,Wunderground v.1.15,2013-08-31 22:50:00,
2013-08-31 18:52:00,75.2,73.4,29.92,NNE,24,0.0,2.0,94,0.00,,,0.23,Wunderground v.1.15,2013-08-31 22:52:00,
2013-08-31 18:56:00,75.3,73.5,29.93,NW,311,0.0,2.0,94,0.00,,,0.23,Wunderground v.1.15,2013-08-31 22:56:00,
2013-08-31 18:57:00,75.4,73.6,29.93,NW,309,0.0,2.0,94,0.00,,,0.23,Wunderground v.1.15,2013-08-31 22:57:00,
2013-08-31 18:58:00,75.4,73.6,29.94,WNW,296,1.0,3.0,94,0.00,,,0.23,Wunderground v.1.15,2013-08-31 22:58:00,
2013-08-31 19:02:00,75.8,73.9,29.95,NNW,330,2.0,7.0,94,0.00,,,0.23,Wunderground v.1.15,2013-08-31 23:02:00,
2013-08-31 19:03:00,75.8,73.6,29.95,NW,314,3.0,7.0,93,0.00,,,0.23,Wunderground v.1.15,2013-08-31 23:03:00,
2013-08-31 19:05:00,75.8,73.6,29.95,NW,311,4.0,8.0,93,0.00,,,0.23,Wunderground v.1.15,2013-08-31 23:05:00,
2013-08-31 19:09:00,75.7,73.2,29.95,NW,308,6.0,8.0,92,0.00,,,0.23,Wunderground v.1.15,2013-08-31 23:09:00,
2013-08-31 19:11:00,75.7,73.2,29.95,NW,304,6.0,7.0,92,0.00,,,0.23,Wunderground v.1.15,2013-08-31 23:11:00,
2013-08-31 19:13:00,75.6,73.1,29.95,NW,315,6.0,7.0,92,0.00,,,0.23,Wunderground v.1.15,2013-08-31 23:13:00,
2013-08-31 19:14:00,75.5,72.7,29.95,NW,311,6.0,7.0,91,0.00,,,0.23,Wunderground v.1.15,2013-08-31 23:14:00,
2013-08-31 19:16:00,75.5,72.7,29.95,NNW,335,6.0,7.0,91,0.00,,,0.23,Wunderground v.1.15,2013-08-31 23:16:00,
2013-08-31 19:17:00,75.5,72.7,29.95,NNW,329,5.0,7.0,91,0.00,,,0.23,Wunderground v.1.15,2013-08-31 23:17:00,
2013-08-31 19:18:00,75.5,73.0,29.95,NW,315,5.0,7.0,92,0.00,,,0.23,Wunderground v.1.15,2013-08-31 23:18:00,
2013-08-31 19:23:00,75.4,72.9,29.95,NW,322,3.0,4.0,92,0.00,,,0.23,Wunderground v.1.15,2013-08-31 23:23:00,
2013-08-31 19:24:00,75.4,72.9,29.95,NW,317,2.0,4.0,92,0.00,,,0.23,Wunderground v.1.15,2013-08-31 23:24:00,
2013-08-31 19:25:00,75.4,72.9,29.95,NW,321,2.0,4.0,92,0.00,,,0.23,Wunderground v.1.15,2013-08-31 23:25:00,
2013-08-31 19:26:00,75.3,72.8,29.94,NW,321,1.0,4.0,92,0.00,,,0.23,Wunderground v.1.15,2013-08-31 23:26:00,
2013-08-31 19:28:00,75.4,72.9,29.95,NW,320,1.0,4.0,92,0.00,,,0.23,Wunderground v.1.15,2013-08-31 23:28:00,
2013-08-31 19:32:00,75.4,72.9,29.94,NW,320,0.0,1.0,92,0.00,,,0.23,Wunderground v.1.15,2013-08-31 23:32:00,
2013-08-31 19:33:00,75.4,72.9,29.94,NW,320,0.0,1.0,92,0.00,,,0.23,Wunderground v.1.15,2013-08-31 23:33:00,
2013-08-31 19:34:00,75.5,73.0,29.94,NW,320,0.0,1.0,92,0.00,,,0.23,Wunderground v.1.15,2013-08-31 23:34:00,
2013-08-31 19:38:00,75.5,73.3,29.94,NW,320,0.0,1.0,93,0.00,,,0.23,Wunderground v.1.15,2013-08-31 23:38:00,
2013-08-31 19:39:00,75.5,73.3,29.94,NW,320,0.0,1.0,93,0.00,,,0.23,Wunderground v.1.15,2013-08-31 23:39:00,
2013-08-31 19:40:00,75.5,73.3,29.94,NW,320,0.0,1.0,93,0.00,,,0.23,Wunderground v.1.15,2013-08-31 23:40:00,
2013-08-31 19:42:00,75.5,73.3,29.94,NW,320,0.0,1.0,93,0.00,,,0.23,Wunderground v.1.15,2013-08-31 23:42:00,
2013-08-31 19:44:00,75.4,73.2,29.94,NW,321,0.0,1.0,93,0.00,,,0.23,Wunderground v.1.15,2013-08-31 23:44:00,
2013-08-31 19:47:00,75.5,73.3,29.94,NW,321,0.0,1.0,93,0.00,,,0.23,Wunderground v.1.15,2013-08-31 23:47:00,
2013-08-31 19:49:00,75.5,73.7,29.94,NW,320,0.0,1.0,94,0.00,,,0.23,Wunderground v.1.15,2013-08-31 23:49:00,
2013-08-31 19:50:00,75.5,73.7,29.94,NNW,339,0.0,2.0,94,0.00,,,0.23,Wunderground v.1.15,2013-08-31 23:50:00,
2013-08-31 19:51:00,75.5,73.7,29.94,NNW,339,0.0,2.0,94,0.00,,,0.23,Wunderground v.1.15,2013-08-31 23:51:00,
2013-08-31 19:54:00,75.5,73.7,29.93,NNW,327,1.0,2.0,94,0.00,,,0.23,Wunderground v.1.15,2013-08-31 23:54:00,
2013-08-31 19:56:00,75.5,73.7,29.93,North,7,1.0,2.0,94,0.00,,,0.23,Wunderground v.1.15,2013-08-31 23:56:00,
2013-08-31 19:57:00,75.5,73.7,29.94,NNE,23,1.0,2.0,94,0.00,,,0.23,Wunderground v.1.15,2013-08-31 23:57:00,
2013-08-31 19:58:00,75.6,74.1,29.94,NNE,23,1.0,2.0,95,0.00,,,0.23,Wunderground v.1.15,2013-08-31 23:58:00,
2013-08-31 19:59:00,75.6,74.1,29.94,NNE,23,0.0,2.0,95,0.00,,,0.23,Wunderground v.1.15,2013-08-31 23:59:00,
2013-08-31 20:03:00,75.6,74.1,29.94,East,79,0.0,1.0,95,0.00,,,0.23,Wunderground v.1.15,2013-09-01 00:03:00,
2013-08-31 20:05:00,75.7,74.2,29.94,ENE,78,0.0,2.0,95,0.00,,,0.23,Wunderground v.1.15,2013-09-01 00:05:00,
2013-08-31 20:07:00,75.7,74.2,29.94,East,79,0.0,2.0,95,0.00,,,0.23,Wunderground v.1.15,2013-09-01 00:07:00,
2013-08-31 20:09:00,75.7,74.2,29.94,East,79,0.0,2.0,95,0.00,,,0.23,Wunderground v.1.15,2013-09-01 00:09:00,
2013-08-31 20:10:00,75.7,74.2,29.94,East,79,0.0,0.0,95,0.00,,,0.23,Wunderground v.1.15,2013-09-01 00:10:00,
2013-08-31 20:14:00,75.6,74.1,29.94,ENE,78,0.0,0.0,95,0.00,,,0.23,Wunderground v.1.15,2013-09-01 00:14:00,
2013-08-31 20:15:00,75.6,74.1,29.94,ENE,78,0.0,0.0,95,0.00,,,0.23,Wunderground v.1.15,2013-09-01 00:15:00,
2013-08-31 20:16:00,75.6,74.1,29.94,ENE,78,0.0,0.0,95,0.00,,,0.23,Wunderground v.1.15,2013-09-01 00:16:00,
2013-08-31 20:17:00,75.6,74.1,29.94,ENE,78,0.0,0.0,95,0.00,,,0.23,Wunderground v.1.15,2013-09-01 00:17:00,
2013-08-31 20:19:00,75.6,74.1,29.94,ENE,78,0.0,0.0,95,0.00,,,0.23,Wunderground v.1.15,2013-09-01 00:19:00,
2013-08-31 20:20:00,75.5,74.0,29.94,ENE,78,0.0,0.0,95,0.00,,,0.23,Wunderground v.1.15,2013-09-01 00:20:00,
2013-08-31 20:22:00,75.5,74.0,29.94,ENE,78,0.0,0.0,95,0.00,,,0.23,Wunderground v.1.15,2013-09-01 00:22:00,
2013-08-31 20:24:00,75.5,74.0,29.93,ENE,78,0.0,0.0,95,0.00,,,0.23,Wunderground v.1.15,2013-09-01 00:24:00,
2013-08-31 20:25:00,75.5,74.0,29.93,ENE,78,0.0,0.0,95,0.00,,,0.23,Wunderground v.1.15,2013-09-01 00:25:00,
2013-08-31 20:27:00,75.5,74.0,29.93,ENE,78,0.0,0.0,95,0.00,,,0.23,Wunderground v.1.15,2013-09-01 00:27:00,
2013-08-31 20:29:00,75.6,74.1,29.93,ENE,78,0.0,0.0,95,0.00,,,0.23,Wunderground v.1.15,2013-09-01 00:29:00,
2013-08-31 20:31:00,75.5,74.0,29.93,ENE,78,0.0,5.0,95,0.00,,,0.23,Wunderground v.1.15,2013-09-01 00:31:00,
2013-08-31 20:32:00,75.5,74.0,29.94,ENE,78,0.0,5.0,95,0.00,,,0.23,Wunderground v.1.15,2013-09-01 00:32:00,
2013-08-31 20:34:00,75.5,74.0,29.94,ENE,78,0.0,5.0,95,0.00,,,0.23,Wunderground v.1.15,2013-09-01 00:34:00,
2013-08-31 20:39:00,75.5,74.0,29.94,ENE,77,0.0,5.0,95,0.00,,,0.23,Wunderground v.1.15,2013-09-01 00:39:00,
2013-08-31 20:40:00,75.6,74.1,29.94,ENE,77,0.0,5.0,95,0.00,,,0.23,Wunderground v.1.15,2013-09-01 00:40:00,
2013-08-31 20:41:00,75.6,74.1,29.94,ENE,77,0.0,5.0,95,0.00,,,0.23,Wunderground v.1.15,2013-09-01 00:41:00,
2013-08-31 20:42:00,75.6,74.1,29.94,NNW,337,0.0,5.0,95,0.00,,,0.23,Wunderground v.1.15,2013-09-01 00:42:00,
2013-08-31 20:44:00,75.6,74.4,29.95,NNW,337,0.0,5.0,96,0.00,,,0.23,Wunderground v.1.15,2013-09-01 00:44:00,
2013-08-31 20:46:00,75.7,74.5,29.94,NW,311,0.0,5.0,96,0.00,,,0.23,Wunderground v.1.15,2013-09-01 00:46:00,
2013-08-31 20:47:00,75.7,74.5,29.94,NW,311,0.0,5.0,96,0.00,,,0.23,Wunderground v.1.15,2013-09-01 00:47:00,
2013-08-31 20:50:00,75.8,74.6,29.94,NW,311,1.0,1.0,96,0.00,,,0.23,Wunderground v.1.15,2013-09-01 00:50:00,
2013-08-31 20:52:00,75.8,74.6,29.94,NW,311,1.0,5.0,96,0.00,,,0.23,Wunderground v.1.15,2013-09-01 00:52:00,
2013-08-31 20:53:00,75.7,74.2,29.95,NW,311,1.0,5.0,95,0.00,,,0.23,Wunderground v.1.15,2013-09-01 00:53:00,
2013-08-31 20:55:00,75.7,74.2,29.95,NW,311,0.0,5.0,95,0.00,,,0.23,Wunderground v.1.15,2013-09-01 00:55:00,
2013-08-31 20:56:00,75.6,74.1,29.95,NW,311,0.0,5.0,95,0.00,,,0.23,Wunderground v.1.15,2013-09-01 00:56:00,
2013-08-31 20:59:00,75.6,74.1,29.95,NW,311,0.0,5.0,95,0.00,,,0.23,Wunderground v.1.15,2013-09-01 00:59:00,
2013-08-31 21:00:00,75.6,74.4,29.95,NW,311,0.0,0.0,96,0.00,,,0.23,Wunderground v.1.15,2013-09-01 01:00:00,
2013-08-31 21:04:00,75.6,74.4,29.95,NW,311,0.0,0.0,96,0.00,,,0.23,Wunderground v.1.15,2013-09-01 01:04:00,
2013-08-31 21:05:00,75.6,74.4,29.95,NW,311,0.0,0.0,96,0.00,,,0.23,Wunderground v.1.15,2013-09-01 01:05:00,
2013-08-31 21:08:00,75.6,74.4,29.95,NW,311,0.0,0.0,96,0.00,,,0.23,Wunderground v.1.15,2013-09-01 01:08:00,
2013-08-31 21:09:00,75.5,74.3,29.96,NW,311,0.0,0.0,96,0.00,,,0.23,Wunderground v.1.15,2013-09-01 01:09:00,
2013-08-31 21:10:00,75.5,74.3,29.96,NW,311,0.0,0.0,96,0.00,,,0.23,Wunderground v.1.15,2013-09-01 01:10:00,
2013-08-31 21:15:00,75.5,74.3,29.96,South,174,0.0,0.0,96,0.00,,,0.23,Wunderground v.1.15,2013-09-01 01:15:00,
2013-08-31 21:16:00,75.5,74.3,29.96,ESE,120,0.0,1.0,96,0.00,,,0.23,Wunderground v.1.15,2013-09-01 01:16:00,
2013-08-31 21:17:00,75.5,74.3,29.96,ESE,123,0.0,1.0,96,0.00,,,0.23,Wunderground v.1.15,2013-09-01 01:17:00,
2013-08-31 21:19:00,75.5,74.3,29.96,SE,141,0.0,1.0,96,0.00,,,0.23,Wunderground v.1.15,2013-09-01 01:19:00,
2013-08-31 21:20:00,75.5,74.3,29.96,SE,141,0.0,0.0,96,0.00,,,0.23,Wunderground v.1.15,2013-09-01 01:20:00,
2013-08-31 21:21:00,75.5,74.3,29.96,SE,141,0.0,0.0,96,0.00,,,0.23,Wunderground v.1.15,2013-09-01 01:21:00,
2013-08-31 21:22:00,75.4,74.2,29.96,SE,141,0.0,0.0,96,0.00,,,0.23,Wunderground v.1.15,2013-09-01 01:22:00,
2013-08-31 21:25:00,75.4,74.2,29.96,SE,142,0.0,0.0,96,0.00,,,0.23,Wunderground v.1.15,2013-09-01 01:25:00,
2013-08-31 21:26:00,75.4,74.2,29.96,SE,142,0.0,0.0,96,0.00,,,0.23,Wunderground v.1.15,2013-09-01 01:26:00,
2013-08-31 21:27:00,75.4,74.2,29.96,SE,142,0.0,0.0,96,0.00,,,0.23,Wunderground v.1.15,2013-09-01 01:27:00,
2013-08-31 21:28:00,75.4,74.2,29.96,SE,142,0.0,0.0,96,0.00,,,0.23,Wunderground v.1.15,2013-09-01 01:28:00,
2013-08-31 21:29:00,75.4,74.2,29.96,SE,142,0.0,0.0,96,0.00,,,0.23,Wunderground v.1.15,2013-09-01 01:29:00,
2013-08-31 21:31:00,75.3,74.1,29.96,SE,142,0.0,2.0,96,0.00,,,0.23,Wunderground v.1.15,2013-09-01 01:31:00,
2013-08-31 21:34:00,75.3,74.1,29.96,SE,142,0.0,2.0,96,0.00,,,0.23,Wunderground v.1.15,2013-09-01 01:34:00,
2013-08-31 21:35:00,75.3,74.1,29.96,SE,142,0.0,2.0,96,0.00,,,0.23,Wunderground v.1.15,2013-09-01 01:35:00,
2013-08-31 21:37:00,75.3,74.1,29.96,SE,142,0.0,2.0,96,0.00,,,0.23,Wunderground v.1.15,2013-09-01 01:37:00,
2013-08-31 21:38:00,75.2,74.0,29.96,SE,142,0.0,2.0,96,0.00,,,0.23,Wunderground v.1.15,2013-09-01 01:38:00,
2013-08-31 21:39:00,75.2,74.0,29.96,SE,142,0.0,2.0,96,0.00,,,0.23,Wunderground v.1.15,2013-09-01 01:39:00,
2013-08-31 21:43:00,75.1,73.9,29.96,SE,142,0.0,2.0,96,0.00,,,0.23,Wunderground v.1.15,2013-09-01 01:43:00,
2013-08-31 21:44:00,75.1,73.9,29.96,SE,142,0.0,2.0,96,0.00,,,0.23,Wunderground v.1.15,2013-09-01 01:44:00,
2013-08-31 21:45:00,75.1,73.9,29.96,SE,142,0.0,2.0,96,0.00,,,0.23,Wunderground v.1.15,2013-09-01 01:45:00,
2013-08-31 21:49:00,75.1,73.9,29.96,SE,142,0.0,2.0,96,0.00,,,0.23,Wunderground v.1.15,2013-09-01 01:49:00,
2013-08-31 21:50:00,75.1,73.9,29.96,SE,142,0.0,2.0,96,0.00,,,0.23,Wunderground v.1.15,2013-09-01 01:50:00,
2013-08-31 21:51:00,75.1,73.9,29.96,SE,142,0.0,2.0,96,0.00,,,0.23,Wunderground v.1.15,2013-09-01 01:51:00,
2013-08-31 21:54:00,75.1,73.9,29.96,SE,142,0.0,2.0,96,0.00,,,0.23,Wunderground v.1.15,2013-09-01 01:54:00,
2013-08-31 21:55:00,75.1,73.9,29.96,SE,142,0.0,2.0,96,0.00,,,0.23,Wunderground v.1.15,2013-09-01 01:55:00,
2013-08-31 21:56:00,75.1,73.9,29.96,SE,142,0.0,2.0,96,0.00,,,0.23,Wunderground v.1.15,2013-09-01 01:56:00,
2013-08-31 21:59:00,75.1,73.9,29.96,SE,142,0.0,2.0,96,0.00,,,0.23,Wunderground v.1.15,2013-09-01 01:59:00,
2013-08-31 22:02:00,75.1,73.9,29.96,SE,142,0.0,0.0,96,0.00,,,0.23,Wunderground v.1.15,2013-09-01 02:02:00,
2013-08-31 22:03:00,75.2,74.0,29.96,SE,142,0.0,0.0,96,0.00,,,0.23,Wunderground v.1.15,2013-09-01 02:03:00,
2013-08-31 22:04:00,75.2,74.0,29.96,SE,142,0.0,0.0,96,0.00,,,0.23,Wunderground v.1.15,2013-09-01 02:04:00,
2013-08-31 22:05:00,75.2,74.0,29.96,SE,142,0.0,0.0,96,0.00,,,0.23,Wunderground v.1.15,2013-09-01 02:05:00,
2013-08-31 22:06:00,75.2,74.0,29.96,SE,142,0.0,0.0,96,0.00,,,0.23,Wunderground v.1.15,2013-09-01 02:06:00,
2013-08-31 22:09:00,75.1,73.9,29.96,SE,142,0.0,0.0,96,0.00,,,0.23,Wunderground v.1.15,2013-09-01 02:09:00,
2013-08-31 22:10:00,75.1,73.9,29.96,SE,142,0.0,0.0,96,0.00,,,0.23,Wunderground v.1.15,2013-09-01 02:10:00,
2013-08-31 22:15:00,75.0,73.8,29.96,SE,142,0.0,0.0,96,0.00,,,0.23,Wunderground v.1.15,2013-09-01 02:15:00,
2013-08-31 22:16:00,75.0,73.8,29.96,SE,142,0.0,0.0,96,0.00,,,0.23,Wunderground v.1.15,2013-09-01 02:16:00,
2013-08-31 22:17:00,74.9,73.7,29.96,SE,142,0.0,0.0,96,0.00,,,0.23,Wunderground v.1.15,2013-09-01 02:17:00,
2013-08-31 22:18:00,74.9,73.7,29.96,SE,142,0.0,0.0,96,0.00,,,0.23,Wunderground v.1.15,2013-09-01 02:18:00,
2013-08-31 22:23:00,74.8,73.6,29.96,SE,142,0.0,0.0,96,0.00,,,0.23,Wunderground v.1.15,2013-09-01 02:23:00,
2013-08-31 22:24:00,74.9,73.7,29.96,SE,142,0.0,0.0,96,0.00,,,0.23,Wunderground v.1.15,2013-09-01 02:24:00,
2013-08-31 22:25:00,74.9,74.0,29.96,SE,142,0.0,0.0,97,0.00,,,0.23,Wunderground v.1.15,2013-09-01 02:25:00,
2013-08-31 22:26:00,74.9,73.7,29.96,SE,142,0.0,0.0,96,0.00,,,0.23,Wunderground v.1.15,2013-09-01 02:26:00,
2013-08-31 22:30:00,74.9,73.7,29.96,SE,142,0.0,0.0,96,0.00,,,0.23,Wunderground v.1.15,2013-09-01 02:30:00,
2013-08-31 22:33:00,74.9,73.7,29.96,SE,142,0.0,2.0,96,0.00,,,0.23,Wunderground v.1.15,2013-09-01 02:33:00,
2013-08-31 22:35:00,74.9,73.7,29.96,SE,142,0.0,2.0,96,0.00,,,0.23,Wunderground v.1.15,2013-09-01 02:35:00,
2013-08-31 22:36:00,74.8,73.6,29.96,SE,142,0.0,2.0,96,0.00,,,0.23,Wunderground v.1.15,2013-09-01 02:36:00,
2013-08-31 22:37:00,74.8,73.6,29.96,SE,142,0.0,2.0,96,0.00,,,0.23,Wunderground v.1.15,2013-09-01 02:37:00,
2013-08-31 22:38:00,74.8,73.6,29.96,SE,142,0.0,2.0,96,0.00,,,0.23,Wunderground v.1.15,2013-09-01 02:38:00,
2013-08-31 22:41:00,74.8,73.6,29.95,SE,142,0.0,2.0,96,0.00,,,0.23,Wunderground v.1.15,2013-09-01 02:41:00,
2013-08-31 22:44:00,74.7,73.5,29.95,SE,142,0.0,2.0,96,0.00,,,0.23,Wunderground v.1.15,2013-09-01 02:44:00,
2013-08-31 22:45:00,74.7,73.5,29.95,SE,142,0.0,2.0,96,0.00,,,0.23,Wunderground v.1.15,2013-09-01 02:45:00,
2013-08-31 22:47:00,74.8,73.9,29.96,SE,142,0.0,2.0,97,0.00,,,0.23,Wunderground v.1.15,2013-09-01 02:47:00,
2013-08-31 22:49:00,74.8,73.9,29.96,SE,142,0.0,2.0,97,0.00,,,0.23,Wunderground v.1.15,2013-09-01 02:49:00,
2013-08-31 22:52:00,74.8,73.9,29.96,SE,142,0.0,2.0,97,0.00,,,0.23,Wunderground v.1.15,2013-09-01 02:52:00,
2013-08-31 22:53:00,74.8,73.6,29.96,SE,142,0.0,2.0,96,0.00,,,0.23,Wunderground v.1.15,2013-09-01 02:53:00,
2013-08-31 22:54:00,74.8,73.6,29.96,SE,142,0.0,2.0,96,0.00,,,0.23,Wunderground v.1.15,2013-09-01 02:54:00,
2013-08-31 22:55:00,74.8,73.6,29.96,SE,142,0.0,2.0,96,0.00,,,0.23,Wunderground v.1.15,2013-09-01 02:55:00,
2013-08-31 22:59:00,74.7,73.5,29.96,SE,142,0.0,2.0,96,0.00,,,0.23,Wunderground v.1.15,2013-09-01 02:59:00,
2013-08-31 23:01:00,74.7,73.8,29.96,SE,142,0.0,0.0,97,0.00,,,0.23,Wunderground v.1.15,2013-09-01 03:01:00,
2013-08-31 23:02:00,74.7,73.8,29.96,SE,142,0.0,0.0,97,0.00,,,0.23,Wunderground v.1.15,2013-09-01 03:02:00,
2013-08-31 23:03:00,74.7,73.8,29.96,SE,142,0.0,0.0,97,0.00,,,0.23,Wunderground v.1.15,2013-09-01 03:03:00,
2013-08-31 23:04:00,74.8,73.9,29.96,SE,142,0.0,0.0,97,0.00,,,0.23,Wunderground v.1.15,2013-09-01 03:04:00,
2013-08-31 23:08:00,74.7,73.8,29.96,SE,142,0.0,0.0,97,0.00,,,0.23,Wunderground v.1.15,2013-09-01 03:08:00,
2013-08-31 23:09:00,74.7,73.8,29.96,SE,142,0.0,0.0,97,0.00,,,0.23,Wunderground v.1.15,2013-09-01 03:09:00,
2013-08-31 23:10:00,74.7,73.8,29.96,SE,142,0.0,0.0,97,0.00,,,0.23,Wunderground v.1.15,2013-09-01 03:10:00,
2013-08-31 23:12:00,74.8,73.9,29.96,SE,142,0.0,0.0,97,0.00,,,0.23,Wunderground v.1.15,2013-09-01 03:12:00,
2013-08-31 23:15:00,74.7,73.8,29.96,SE,142,0.0,0.0,97,0.00,,,0.23,Wunderground v.1.15,2013-09-01 03:15:00,
2013-08-31 23:16:00,74.8,73.9,29.96,SE,142,0.0,0.0,97,0.00,,,0.23,Wunderground v.1.15,2013-09-01 03:16:00,
2013-08-31 23:17:00,74.7,73.8,29.96,SE,142,0.0,0.0,97,0.00,,,0.23,Wunderground v.1.15,2013-09-01 03:17:00,
2013-08-31 23:21:00,74.6,73.7,29.96,SE,142,0.0,0.0,97,0.00,,,0.23,Wunderground v.1.15,2013-09-01 03:21:00,
2013-08-31 23:22:00,74.6,73.7,29.96,SE,142,0.0,0.0,97,0.00,,,0.23,Wunderground v.1.15,2013-09-01 03:22:00,
2013-08-31 23:23:00,74.6,73.7,29.95,SE,142,0.0,0.0,97,0.00,,,0.23,Wunderground v.1.15,2013-09-01 03:23:00,
2013-08-31 23:25:00,74.7,73.8,29.95,SE,142,0.0,0.0,97,0.00,,,0.23,Wunderground v.1.15,2013-09-01 03:25:00,
2013-08-31 23:29:00,74.6,73.7,29.95,SE,142,0.0,0.0,97,0.00,,,0.23,Wunderground v.1.15,2013-09-01 03:29:00,
2013-08-31 23:31:00,74.7,73.8,29.95,SE,142,0.0,0.0,97,0.00,,,0.23,Wunderground v.1.15,2013-09-01 03:31:00,
2013-08-31 23:32:00,74.7,73.8,29.95,SE,142,0.0,0.0,97,0.00,,,0.23,Wunderground v.1.15,2013-09-01 03:32:00,
2013-08-31 23:33:00,74.8,73.9,29.95,SE,142,0.0,0.0,97,0.00,,,0.23,Wunderground v.1.15,2013-09-01 03:33:00,
2013-08-31 23:35:00,74.7,73.8,29.95,SE,142,0.0,0.0,97,0.00,,,0.23,Wunderground v.1.15,2013-09-01 03:35:00,
2013-08-31 23:37:00,74.8,73.9,29.95,SE,142,0.0,0.0,97,0.00,,,0.23,Wunderground v.1.15,2013-09-01 03:37:00,
2013-08-31 23:38:00,74.8,73.9,29.95,SE,142,0.0,0.0,97,0.00,,,0.23,Wunderground v.1.15,2013-09-01 03:38:00,
2013-08-31 23:40:00,74.8,73.9,29.95,SE,142,0.0,0.0,97,0.00,,,0.23,Wunderground v.1.15,2013-09-01 03:40:00,
2013-08-31 23:43:00,74.8,73.9,29.95,SE,142,0.0,0.0,97,0.00,,,0.23,Wunderground v.1.15,2013-09-01 03:43:00,
2013-08-31 23:46:00,74.7,73.8,29.95,SE,142,0.0,0.0,97,0.00,,,0.23,Wunderground v.1.15,2013-09-01 03:46:00,
2013-08-31 23:48:00,74.6,73.7,29.95,SE,142,0.0,0.0,97,0.00,,,0.23,Wunderground v.1.15,2013-09-01 03:48:00,
2013-08-31 23:49:00,74.6,73.7,29.95,SE,142,0.0,0.0,97,0.00,,,0.23,Wunderground v.1.15,2013-09-01 03:49:00,
2013-08-31 23:51:00,74.6,73.7,29.95,SE,142,0.0,0.0,97,0.00,,,0.23,Wunderground v.1.15,2013-09-01 03:51:00,
2013-08-31 23:52:00,74.6,73.7,29.95,SE,142,0.0,0.0,97,0.00,,,0.23,Wunderground v.1.15,2013-09-01 03:52:00,
2013-08-31 23:53:00,74.6,73.7,29.95,SE,142,0.0,0.0,97,0.00,,,0.23,Wunderground v.1.15,2013-09-01 03:53:00,
2013-08-31 23:56:00,74.6,73.7,29.95,SE,142,0.0,0.0,97,0.00,,,0.23,Wunderground v.1.15,2013-09-01 03:56:00,
2013-08-31 23:59:00,74.6,73.7,29.95,SE,142,0.0,0.0,97,0.00,,,0.23,Wunderground v.1.15,2013-09-01 03:59:00,